Aeroporto :
LOGIN :

Iscrizione | Disclaimer

   EN    FR    IT 

 










Sommario :    VFR   VFR Marginale   IFR   IFR Intensivo   IFR Molto Intensivo
Visibilità : 
Base nubi : 
>= 8 km
>= 3000ft
5 / 8 km
1000 / 3000 ft
1500m / 5 km
500 / 1000 ft
800 / 1500m
200 / 500 ft
< 800m
< 200 ft
Simboli :   Temporali  Nebbia  Neve Forte  Precipitazioni Forti  Vento > 20 kt
SIGMETs :   Varie  Temporali  Ghiacco  Turbolenza  Onda orograficha  Ceneri Vulcaniche






- Altitudine del aeroporto : 1465 ft


LSMP - Payerne

ULTIMO METAR :
  • 212350Z AUTO 00000KT 9999NDV NCD M01/M01 Q1019 RMK

METARs OBSOLETI :
  • 212320Z AUTO VRB01KT 9999NDV FEW034 M00/M01 Q1019 RMK
  • 212250Z AUTO VRB01KT 9999NDV NCD 00/M01 Q1019 RMK
  • 212220Z AUTO 36001KT 9999NDV FEW038 00/M01 Q1019 RMK
  • 212150Z AUTO 00000KT 9999NDV FEW048 00/M01 Q1020 RMK
  • 212120Z AUTO VRB01KT 9999NDV FEW080 01/M01 Q1020 RMK
  • 212050Z AUTO 06003KT 030V090 9999NDV FEW061 01/M01 Q1020 RMK
  • 212020Z AUTO 04004KT 9999NDV FEW043 01/M01 Q1020 RMK
  • 211950Z AUTO 06003KT 020V080 9999NDV FEW042 01/M00 Q1020 RMK
  • 211920Z AUTO 09006KT 060V130 9999NDV FEW026 02/M00 Q1020 RMK

Previsioni scadute.



MetMap, La meteo Aeronautica in un colpo d'occhio ! - Copyright ORBIFLY Dicembre 2007 - Disclaimer

ORBIFLY MET'MAP TEAM :

Programmazione e sviluppo : Alexandra Zaïnal
Concezione : Baudouin d'Aumeries
Supporto tecnico e logistico : Manuel Goepfert
Aiuto : Marc-Olivier Méhu
Aiuto per la traduzione : Arnaldo La Scala




FONTI E CREDITI :

   NOAA